Time;durP1;ratioP1;P1;durP2;ratioP2;P2;SDS_P1;SDS_P2;PMS_P1;PMS_P2;Temp;Humidity;BMP_temperature;BMP_pressure;BME280_temperature;BME280_humidity;BME280_pressure;Samples;Min_cycle;Max_cycle;Signal;HPM_P1;HPM_P2
2021/12/24 00:01:58;;;;;;;53.00;21.77;;;3.60;96.60;;;;;;5032700;28;20180;-87
2021/12/24 00:04:24;;;;;;;54.07;22.07;;;3.70;96.60;;;;;;5034264;28;20175;-87
2021/12/24 00:06:51;;;;;;;45.00;20.93;;;3.60;96.60;;;;;;5032796;28;20259;-87
2021/12/24 00:09:22;;;;;;;32.17;15.17;;;3.60;96.60;;;;;;5033730;28;20201;-88
2021/12/24 00:11:49;;;;;;;26.97;13.17;;;3.70;96.60;;;;;;5032725;28;20165;-87
2021/12/24 00:14:15;;;;;;;42.57;22.17;;;3.70;96.60;;;;;;5032293;28;20207;-87
2021/12/24 00:16:49;;;;;;;39.83;20.23;;;3.70;96.60;;;;;;5032522;28;20177;-87
2021/12/24 00:19:25;;;;;;;24.70;13.40;;;3.80;96.70;;;;;;5032402;28;20657;-86
2021/12/24 00:35:34;;;;;;;41.20;21.87;;;3.80;96.60;;;;;;5034013;28;20168;-88
2021/12/24 00:38:03;;;;;;;45.30;22.00;;;3.80;96.70;;;;;;5032130;28;20169;-87
2021/12/24 00:40:34;;;;;;;32.50;17.57;;;3.80;96.70;;;;;;5033259;28;20195;-87
2021/12/24 00:43:00;;;;;;;40.47;20.77;;;3.90;96.70;;;;;;5033298;28;20193;-88
2021/12/24 00:45:29;;;;;;;36.50;17.67;;;3.80;96.70;;;;;;5033285;28;20183;-87
2021/12/24 00:47:57;;;;;;;22.30;10.63;;;3.80;96.60;;;;;;5032102;28;20663;-87
2021/12/24 00:50:26;;;;;;;28.80;16.60;;;3.80;96.60;;;;;;5031998;28;20235;-87
2021/12/24 00:55:03;;;;;;;35.43;19.07;;;3.90;96.70;;;;;;5033185;28;20188;-88
2021/12/24 00:55:41;;;;;;;39.13;20.57;;;3.80;96.60;;;;;;5032920;28;20667;-87
2021/12/24 00:58:07;;;;;;;36.40;19.17;;;3.80;96.60;;;;;;5032051;28;20173;-87
2021/12/24 01:00:38;;;;;;;38.50;20.20;;;3.90;96.70;;;;;;5032051;28;20184;-88
2021/12/24 01:03:07;;;;;;;39.77;19.70;;;3.90;96.70;;;;;;5032347;28;20250;-87
2021/12/24 01:05:34;;;;;;;37.27;19.60;;;3.80;96.60;;;;;;5032986;28;20173;-87
2021/12/24 01:08:00;;;;;;;44.40;24.50;;;3.70;96.60;;;;;;5033073;28;20173;-88
2021/12/24 01:10:30;;;;;;;37.53;20.53;;;3.80;96.60;;;;;;5031828;28;20199;-88
2021/12/24 01:12:56;;;;;;;42.80;23.57;;;3.80;96.70;;;;;;5031943;28;20226;-89
2021/12/24 01:15:23;;;;;;;44.07;23.10;;;3.80;96.70;;;;;;5031785;28;20168;-88
2021/12/24 01:18:09;;;;;;;48.97;24.87;;;3.80;96.70;;;;;;5032067;28;20177;-87
2021/12/24 01:23:31;;;;;;;47.30;25.47;;;3.80;96.70;;;;;;5033352;28;20196;-87
2021/12/24 01:26:11;;;;;;;46.00;23.33;;;3.90;96.70;;;;;;5033152;28;20164;-88
2021/12/24 01:44:57;;;;;;;31.20;17.57;;;3.90;96.70;;;;;;5036841;28;20171;-88
2021/12/24 01:47:23;;;;;;;36.73;19.80;;;3.80;96.70;;;;;;5035279;28;20184;-88
2021/12/24 01:49:49;;;;;;;28.07;16.00;;;3.90;96.70;;;;;;5035176;28;20204;-88
2021/12/24 01:52:16;;;;;;;25.60;15.47;;;3.80;96.70;;;;;;5035125;28;20192;-88
2021/12/24 01:54:44;;;;;;;35.87;21.37;;;3.90;96.70;;;;;;5034971;28;20219;-88
2021/12/24 01:57:12;;;;;;;28.30;16.73;;;3.90;96.70;;;;;;5036183;28;20547;-87
2021/12/24 01:59:39;;;;;;;30.30;16.83;;;4.00;96.70;;;;;;5034881;28;20271;-88
2021/12/24 02:02:05;;;;;;;33.33;19.13;;;4.00;96.70;;;;;;5034677;28;20249;-88
2021/12/24 02:04:30;;;;;;;31.47;19.57;;;4.00;96.70;;;;;;5036092;28;20176;-88
2021/12/24 02:06:56;;;;;;;34.20;19.70;;;4.00;96.70;;;;;;5036075;28;20548;-88
2021/12/24 02:09:22;;;;;;;33.17;18.53;;;4.10;96.70;;;;;;5034532;28;20193;-88
2021/12/24 02:11:47;;;;;;;31.17;19.37;;;4.00;96.70;;;;;;5035880;28;20165;-88
2021/12/24 02:14:19;;;;;;;35.07;19.17;;;4.00;96.70;;;;;;5034810;28;20185;-88
2021/12/24 02:28:24;;;;;;;21.40;12.67;;;4.20;96.70;;;;;;5036011;28;20200;-88
2021/12/24 02:30:51;;;;;;;31.33;17.27;;;4.20;96.70;;;;;;5035470;28;20189;-88
2021/12/24 02:33:16;;;;;;;32.27;17.73;;;4.20;96.70;;;;;;5034178;28;20246;-88
2021/12/24 02:35:42;;;;;;;24.67;15.90;;;4.30;96.70;;;;;;5034392;28;20177;-88
2021/12/24 02:38:08;;;;;;;28.50;15.10;;;4.20;96.70;;;;;;5034198;28;20180;-88
2021/12/24 02:40:34;;;;;;;29.43;16.93;;;4.20;96.70;;;;;;5034040;28;20280;-89
2021/12/24 02:43:00;;;;;;;31.77;17.20;;;4.10;96.70;;;;;;5035209;28;20220;-88
2021/12/24 02:45:28;;;;;;;29.70;17.50;;;4.10;96.70;;;;;;5033988;28;20219;-88
2021/12/24 02:55:35;;;;;;;28.30;16.63;;;4.20;96.80;;;;;;5035539;28;20169;-89
2021/12/24 02:58:00;;;;;;;30.10;16.57;;;4.20;96.70;;;;;;5033790;28;20657;-88
2021/12/24 03:00:28;;;;;;;26.77;16.90;;;4.20;96.70;;;;;;5033707;28;20177;-88
2021/12/24 03:02:54;;;;;;;31.77;17.40;;;4.20;96.70;;;;;;5033609;28;20196;-88
2021/12/24 03:05:22;;;;;;;32.03;18.80;;;4.20;96.70;;;;;;5033564;28;20183;-88
2021/12/24 03:07:49;;;;;;;27.43;16.30;;;4.20;96.80;;;;;;5033578;28;20177;-88
2021/12/24 03:10:19;;;;;;;27.97;16.07;;;4.20;96.70;;;;;;5034726;28;20265;-90
2021/12/24 03:12:47;;;;;;;29.73;18.03;;;4.30;96.70;;;;;;5034686;28;20291;-90
2021/12/24 03:15:15;;;;;;;31.77;17.63;;;4.20;96.70;;;;;;5034710;28;20164;-90
2021/12/24 03:17:49;;;;;;;30.70;17.80;;;4.30;96.70;;;;;;5033620;28;20176;-89
2021/12/24 03:20:15;;;;;;;32.47;18.60;;;4.30;96.70;;;;;;5034289;28;20182;-89
2021/12/24 03:23:05;;;;;;;30.97;18.90;;;4.30;96.80;;;;;;5033240;28;20569;-89
2021/12/24 03:25:31;;;;;;;31.83;17.77;;;4.40;96.80;;;;;;5033262;28;20176;-89
2021/12/24 03:27:56;;;;;;;28.80;15.63;;;4.30;96.80;;;;;;5033081;28;20176;-90
2021/12/24 03:30:22;;;;;;;31.80;19.73;;;4.30;96.80;;;;;;5033066;28;20198;-88
2021/12/24 03:32:48;;;;;;;34.87;18.67;;;4.30;96.80;;;;;;5033089;28;20201;-88
2021/12/24 03:35:14;;;;;;;34.17;19.37;;;4.30;96.80;;;;;;5033058;28;20170;-88
2021/12/24 03:37:39;;;;;;;38.17;20.80;;;4.30;96.80;;;;;;5033008;28;20195;-88
2021/12/24 03:40:05;;;;;;;35.20;18.83;;;4.30;96.80;;;;;;5032945;28;20599;-89
2021/12/24 03:42:35;;;;;;;39.40;20.90;;;4.30;96.80;;;;;;5034078;28;20211;-88
2021/12/24 03:45:58;;;;;;;36.83;20.27;;;4.20;96.70;;;;;;5034419;28;20193;-88
2021/12/24 03:47:57;;;;;;;37.30;20.70;;;4.20;96.80;;;;;;5019856;28;20279;-88
2021/12/24 03:50:26;;;;;;;39.40;20.90;;;4.30;96.80;;;;;;5032749;28;20262;-88
2021/12/24 03:55:27;;;;;;;40.87;22.10;;;4.30;96.80;;;;;;5034062;28;20165;-88
2021/12/24 03:57:52;;;;;;;40.97;21.00;;;4.30;96.80;;;;;;5032719;28;20231;-88
2021/12/24 04:00:22;;;;;;;44.23;21.03;;;4.30;96.80;;;;;;5033849;28;20696;-88
2021/12/24 04:02:48;;;;;;;40.67;22.40;;;4.30;96.80;;;;;;5033748;28;20581;-89
2021/12/24 04:05:14;;;;;;;41.43;22.20;;;4.30;96.80;;;;;;5033696;28;20184;-88
2021/12/24 04:07:40;;;;;;;45.93;22.87;;;4.30;96.80;;;;;;5032831;28;20253;-88
2021/12/24 04:10:23;;;;;;;43.97;23.30;;;4.30;96.80;;;;;;5033589;28;20209;-89
2021/12/24 04:12:49;;;;;;;37.10;18.87;;;4.20;96.80;;;;;;5061559;22;20281;-93
2021/12/24 04:15:15;;;;;;;45.00;22.33;;;4.30;96.80;;;;;;5062464;28;20210;-93
2021/12/24 04:17:43;;;;;;;49.87;21.37;;;4.30;96.80;;;;;;5060621;28;20180;-92
2021/12/24 04:25:37;;;;;;;46.77;20.40;;;4.50;96.80;;;;;;5061417;28;20168;-93
2021/12/24 04:28:03;;;;;;;49.47;23.20;;;4.40;96.80;;;;;;5060215;28;20175;-93
2021/12/24 04:30:38;;;;;;;47.17;22.10;;;4.40;96.90;;;;;;5059035;28;20236;-93
2021/12/24 04:33:18;;;;;;;51.53;22.97;;;4.30;96.80;;;;;;5060780;28;20199;-93
2021/12/24 04:35:55;;;;;;;53.33;23.60;;;4.40;96.80;;;;;;5057956;28;20244;-93
2021/12/24 04:51:48;;;;;;;62.80;26.70;;;4.40;96.80;;;;;;5061919;28;20167;-93
2021/12/24 05:05:01;;;;;;;73.43;27.23;;;4.20;96.80;;;;;;5066777;28;20176;-93
2021/12/24 05:09:53;;;;;;;70.57;25.77;;;4.10;96.80;;;;;;5071254;28;20216;-93
2021/12/24 05:12:18;;;;;;;73.13;26.13;;;4.00;96.80;;;;;;5067000;28;20199;-93
2021/12/24 05:14:44;;;;;;;70.00;25.27;;;4.00;96.80;;;;;;5063779;28;20214;-93
2021/12/24 05:17:30;;;;;;;63.70;25.40;;;3.90;96.80;;;;;;5062811;28;20183;-94
2021/12/24 05:22:39;;;;;;;64.63;23.67;;;3.90;96.80;;;;;;5065890;28;20230;-94
2021/12/24 05:25:05;;;;;;;64.13;21.17;;;3.90;96.80;;;;;;5065639;28;20181;-94
2021/12/24 05:27:31;;;;;;;49.07;19.13;;;3.90;96.80;;;;;;5066782;28;20176;-94
2021/12/24 05:29:57;;;;;;;52.93;18.80;;;3.90;96.80;;;;;;5067536;28;20268;-94
2021/12/24 05:32:23;;;;;;;49.93;18.67;;;3.90;96.80;;;;;;5065878;28;20180;-93
2021/12/24 05:34:49;;;;;;;49.83;17.00;;;3.80;96.70;;;;;;5070294;28;20175;-94
2021/12/24 05:37:15;;;;;;;42.47;15.33;;;3.80;96.70;;;;;;5071288;28;20263;-94
2021/12/24 05:39:40;;;;;;;31.20;13.93;;;3.50;96.70;;;;;;5071668;28;20176;-94
2021/12/24 05:42:06;;;;;;;22.57;11.90;;;3.50;96.70;;;;;;5069974;28;20200;-94
2021/12/24 05:44:33;;;;;;;24.20;11.77;;;3.30;96.60;;;;;;5068770;28;20259;-94
2021/12/24 05:47:00;;;;;;;27.17;12.10;;;3.30;96.70;;;;;;5066935;28;20528;-93
2021/12/24 05:49:26;;;;;;;24.17;11.87;;;3.20;96.70;;;;;;5064707;28;20203;-94
2021/12/24 05:51:51;;;;;;;25.37;11.73;;;3.10;96.60;;;;;;5064817;28;20179;-93
2021/12/24 05:54:17;;;;;;;24.17;12.60;;;3.10;96.60;;;;;;5065801;28;20197;-94
2021/12/24 05:56:44;;;;;;;28.13;12.27;;;3.00;96.60;;;;;;5064390;28;20529;-94
2021/12/24 05:59:10;;;;;;;19.33;11.17;;;3.00;96.60;;;;;;5064880;28;20194;-93
2021/12/24 06:01:36;;;;;;;20.43;11.63;;;2.90;96.60;;;;;;5063744;28;20647;-94
2021/12/24 06:04:02;;;;;;;22.30;10.97;;;2.90;96.60;;;;;;5063683;28;20188;-93
2021/12/24 06:06:28;;;;;;;17.63;10.60;;;2.90;96.60;;;;;;5062755;28;20172;-93
2021/12/24 06:08:53;;;;;;;21.40;11.53;;;2.80;96.60;;;;;;5063561;28;20246;-94
2021/12/24 06:11:19;;;;;;;19.93;11.20;;;2.80;96.60;;;;;;5062288;28;20207;-94
2021/12/24 06:13:46;;;;;;;18.73;10.80;;;2.70;96.60;;;;;;5062292;28;20218;-94
2021/12/24 06:16:12;;;;;;;13.77;9.13;;;2.60;96.50;;;;;;5063609;28;20644;-94
2021/12/24 06:18:40;;;;;;;22.00;10.40;;;2.50;96.50;;;;;;5061555;28;20176;-93
2021/12/24 06:21:07;;;;;;;21.57;11.30;;;2.60;96.50;;;;;;5062023;28;20191;-93
2021/12/24 06:23:33;;;;;;;18.43;10.37;;;2.50;96.50;;;;;;5061691;28;20203;-93
2021/12/24 06:26:00;;;;;;;21.50;10.90;;;2.50;96.50;;;;;;5063205;28;20180;-93
2021/12/24 06:28:27;;;;;;;20.80;10.07;;;2.40;96.50;;;;;;5061467;28;20197;-93
2021/12/24 06:30:54;;;;;;;16.10;10.07;;;2.40;96.50;;;;;;5062408;28;20218;-93
2021/12/24 06:33:20;;;;;;;22.23;11.00;;;2.40;96.50;;;;;;5061662;28;20259;-93
2021/12/24 06:35:46;;;;;;;18.73;10.63;;;2.50;96.50;;;;;;5061408;28;20182;-93
2021/12/24 06:38:12;;;;;;;17.93;10.77;;;2.50;96.50;;;;;;5061775;28;20211;-93
2021/12/24 06:40:38;;;;;;;18.70;11.20;;;2.40;96.40;;;;;;5061012;28;20245;-93
2021/12/24 06:43:05;;;;;;;18.57;10.27;;;2.50;96.50;;;;;;5061375;28;20195;-93
2021/12/24 06:45:32;;;;;;;16.07;10.20;;;2.50;96.50;;;;;;5060479;28;20184;-93
2021/12/24 06:48:00;;;;;;;16.30;9.90;;;2.40;96.40;;;;;;5059370;28;20184;-93
2021/12/24 06:50:26;;;;;;;15.70;9.77;;;2.40;96.40;;;;;;5059458;28;20211;-93
2021/12/24 06:52:53;;;;;;;17.50;10.00;;;2.30;96.40;;;;;;5058383;28;20263;-93
2021/12/24 06:55:19;;;;;;;17.17;9.80;;;2.30;96.40;;;;;;5058942;28;20176;-93
2021/12/24 06:57:45;;;;;;;16.83;10.73;;;2.30;96.40;;;;;;5059973;28;20172;-93
2021/12/24 07:00:16;;;;;;;15.47;10.60;;;2.30;96.40;;;;;;5057870;28;20230;-93
2021/12/24 07:02:42;;;;;;;15.63;10.60;;;2.30;96.30;;;;;;5058062;28;20202;-93
2021/12/24 07:05:08;;;;;;;17.03;10.40;;;2.30;96.30;;;;;;5057927;28;20211;-93
2021/12/24 07:07:33;;;;;;;17.03;11.07;;;2.30;96.30;;;;;;5057684;28;20227;-93
2021/12/24 07:09:59;;;;;;;22.37;11.70;;;2.30;96.30;;;;;;5057355;28;20302;-93
2021/12/24 07:12:25;;;;;;;16.07;11.03;;;2.20;96.30;;;;;;5057974;28;20250;-93
2021/12/24 07:14:51;;;;;;;14.23;9.60;;;2.30;96.30;;;;;;5057688;28;20198;-93
2021/12/24 07:17:17;;;;;;;16.13;10.70;;;2.30;96.30;;;;;;5057835;28;20176;-94
2021/12/24 07:19:43;;;;;;;17.93;10.00;;;2.20;96.30;;;;;;5058246;28;20180;-93
2021/12/24 07:22:09;;;;;;;17.87;10.43;;;2.30;96.30;;;;;;5058187;28;20237;-93
2021/12/24 07:24:35;;;;;;;15.73;10.33;;;2.20;96.30;;;;;;5057345;28;20207;-94
2021/12/24 07:27:01;;;;;;;17.43;10.50;;;2.20;96.30;;;;;;5057602;28;20176;-94
2021/12/24 07:29:28;;;;;;;21.87;10.90;;;2.20;96.20;;;;;;5057323;28;20200;-93
2021/12/24 07:31:54;;;;;;;16.73;10.20;;;2.20;96.20;;;;;;5057181;28;20248;-94
2021/12/24 07:34:19;;;;;;;14.60;9.97;;;2.20;96.20;;;;;;5057225;28;20215;-93
2021/12/24 07:36:45;;;;;;;22.53;10.37;;;2.10;96.20;;;;;;5057427;28;20225;-93
2021/12/24 07:39:11;;;;;;;18.63;10.90;;;2.10;96.20;;;;;;5057069;28;20313;-93
2021/12/24 07:41:37;;;;;;;16.67;10.27;;;2.00;96.20;;;;;;5056528;28;20178;-93
2021/12/24 07:44:03;;;;;;;16.30;9.90;;;2.00;96.20;;;;;;5056948;28;20267;-93
2021/12/24 07:46:36;;;;;;;17.33;10.80;;;2.00;96.20;;;;;;5056573;28;20203;-93
2021/12/24 07:49:17;;;;;;;16.07;10.70;;;2.00;96.20;;;;;;5055435;28;20202;-93
2021/12/24 07:52:08;;;;;;;15.27;10.80;;;2.10;96.20;;;;;;5056843;28;20202;-93
2021/12/24 07:54:44;;;;;;;15.73;10.07;;;2.10;96.10;;;;;;5056935;28;20286;-94
2021/12/24 07:57:12;;;;;;;16.87;10.10;;;2.10;96.10;;;;;;5057327;28;20189;-93
2021/12/24 07:59:41;;;;;;;13.10;9.13;;;2.00;96.10;;;;;;5058169;28;20176;-92
2021/12/24 08:02:14;;;;;;;12.80;9.40;;;2.00;96.10;;;;;;5057071;28;20210;-93
2021/12/24 08:04:41;;;;;;;14.97;10.10;;;2.10;96.10;;;;;;5057390;28;20201;-93
2021/12/24 08:07:07;;;;;;;12.80;9.80;;;2.00;96.10;;;;;;5056491;28;20191;-93
2021/12/24 08:09:33;;;;;;;14.50;10.00;;;2.00;96.10;;;;;;5055565;28;20211;-93
2021/12/24 08:11:59;;;;;;;13.83;9.60;;;1.90;96.00;;;;;;5059980;28;20248;-93
2021/12/24 08:14:24;;;;;;;14.27;10.40;;;2.00;96.10;;;;;;5066054;28;20269;-94
2021/12/24 08:16:50;;;;;;;16.53;10.67;;;1.90;96.00;;;;;;5066851;28;20172;-94
2021/12/24 08:19:18;;;;;;;16.40;9.83;;;1.90;96.00;;;;;;5062819;28;20183;-93
2021/12/24 08:21:45;;;;;;;14.93;10.20;;;1.90;96.00;;;;;;5058076;28;20559;-93
2021/12/24 08:24:11;;;;;;;12.97;10.13;;;1.90;96.00;;;;;;5056529;28;20614;-93
2021/12/24 08:26:36;;;;;;;14.63;10.30;;;1.90;96.00;;;;;;5054708;28;20302;-93
2021/12/24 08:29:02;;;;;;;14.03;10.60;;;1.90;96.00;;;;;;5053132;28;20179;-93
2021/12/24 08:31:29;;;;;;;16.70;10.77;;;2.00;96.00;;;;;;5053295;28;20223;-93
2021/12/24 08:33:54;;;;;;;13.70;8.80;;;1.90;96.00;;;;;;5053181;28;20202;-93
2021/12/24 08:36:20;;;;;;;13.63;9.63;;;1.90;96.00;;;;;;5053050;28;20186;-92
2021/12/24 08:38:46;;;;;;;14.27;10.13;;;1.90;96.00;;;;;;5052906;28;20175;-93
2021/12/24 08:41:12;;;;;;;13.77;9.70;;;1.90;96.00;;;;;;5053207;28;20228;-92
2021/12/24 08:43:37;;;;;;;13.73;9.57;;;1.90;96.00;;;;;;5059294;28;20188;-93
2021/12/24 08:46:03;;;;;;;14.90;9.77;;;1.80;95.90;;;;;;5059938;28;20177;-92
2021/12/24 08:48:29;;;;;;;15.33;10.40;;;1.90;95.90;;;;;;5059906;28;20550;-92
2021/12/24 08:50:55;;;;;;;16.37;13.27;;;1.90;96.00;;;;;;5059650;28;20199;-93
2021/12/24 08:53:23;;;;;;;19.83;15.03;;;1.90;95.90;;;;;;5059710;28;20198;-92
2021/12/24 08:55:49;;;;;;;25.20;16.70;;;1.90;95.90;;;;;;5059934;28;20267;-93
2021/12/24 08:58:15;;;;;;;25.13;17.53;;;1.80;95.90;;;;;;5059532;28;20658;-92
2021/12/24 09:00:41;;;;;;;20.33;13.77;;;1.80;95.90;;;;;;5059311;28;20546;-92
2021/12/24 09:03:07;;;;;;;22.27;13.63;;;1.80;95.90;;;;;;5059775;28;20195;-92
2021/12/24 09:05:33;;;;;;;19.97;12.53;;;1.80;95.90;;;;;;5059086;28;20217;-92
2021/12/24 09:07:59;;;;;;;21.63;12.80;;;1.80;95.90;;;;;;5058983;28;20668;-92
2021/12/24 09:10:25;;;;;;;15.00;11.13;;;1.80;95.90;;;;;;5060409;28;20570;-93
2021/12/24 09:12:51;;;;;;;18.07;11.87;;;1.70;95.90;;;;;;5059021;28;20213;-92
2021/12/24 09:15:18;;;;;;;18.70;11.60;;;1.70;95.90;;;;;;5058874;28;20159;-92
2021/12/24 09:17:46;;;;;;;17.53;12.10;;;1.70;95.90;;;;;;5059288;28;20639;-92
2021/12/24 09:20:25;;;;;;;18.33;11.80;;;1.70;95.90;;;;;;5062532;28;20188;-92
2021/12/24 09:22:54;;;;;;;17.33;12.37;;;1.70;95.90;;;;;;5061391;28;20236;-93
2021/12/24 09:25:22;;;;;;;15.03;11.80;;;1.70;95.80;;;;;;5061997;28;20587;-93
2021/12/24 09:27:47;;;;;;;16.30;11.13;;;1.60;95.80;;;;;;5059532;28;20270;-93
2021/12/24 09:30:13;;;;;;;16.80;12.07;;;1.60;95.80;;;;;;5059482;28;20287;-92
2021/12/24 09:32:39;;;;;;;17.67;11.60;;;1.60;95.80;;;;;;5061770;28;20713;-93
2021/12/24 09:35:05;;;;;;;17.23;10.90;;;1.60;95.80;;;;;;5061968;28;20200;-92
2021/12/24 09:37:30;;;;;;;16.07;11.13;;;1.60;95.80;;;;;;5062862;28;20273;-93
2021/12/24 09:39:57;;;;;;;17.17;11.27;;;1.60;95.80;;;;;;5064463;28;20182;-93
2021/12/24 09:42:24;;;;;;;19.67;11.87;;;1.50;95.80;;;;;;5067531;28;20176;-93
2021/12/24 09:44:50;;;;;;;17.17;11.97;;;1.50;95.70;;;;;;5069144;28;20263;-93
2021/12/24 09:47:15;;;;;;;17.00;11.80;;;1.40;95.70;;;;;;5068079;28;20526;-93
2021/12/24 09:49:41;;;;;;;17.23;11.30;;;1.30;95.70;;;;;;5067081;28;20226;-93
2021/12/24 09:52:07;;;;;;;15.77;11.40;;;1.30;95.70;;;;;;5065168;28;20271;-93
2021/12/24 09:54:33;;;;;;;15.53;11.33;;;1.20;95.70;;;;;;5071878;28;20194;-93
2021/12/24 09:57:01;;;;;;;19.83;11.37;;;1.10;95.70;;;;;;5069219;28;20187;-93
2021/12/24 09:59:27;;;;;;;17.73;11.60;;;1.00;95.60;;;;;;5067426;28;20174;-93
2021/12/24 10:01:59;;;;;;;17.37;11.93;;;1.00;95.60;;;;;;5071241;28;20207;-93
2021/12/24 10:04:27;;;;;;;17.77;11.93;;;1.00;95.70;;;;;;5072677;28;20200;-92
2021/12/24 10:06:59;;;;;;;17.70;12.10;;;1.10;95.70;;;;;;5067651;28;20259;-93
2021/12/24 10:09:34;;;;;;;16.93;12.00;;;1.10;95.70;;;;;;5065906;28;20179;-93
2021/12/24 10:12:04;;;;;;;17.73;11.97;;;1.20;95.70;;;;;;5071582;28;20544;-93
2021/12/24 10:14:36;;;;;;;16.83;11.80;;;1.30;95.70;;;;;;5119623;22;20709;-89
2021/12/24 10:17:03;;;;;;;17.43;12.07;;;1.30;95.70;;;;;;5058450;28;20166;-90
2021/12/24 10:19:41;;;;;;;19.40;12.17;;;1.30;95.70;;;;;;5076031;28;20198;-89
2021/12/24 10:22:07;;;;;;;19.10;12.90;;;1.20;95.60;;;;;;5058033;28;20262;-88
2021/12/24 10:24:33;;;;;;;17.67;12.23;;;1.10;95.60;;;;;;5057888;28;20220;-89
2021/12/24 10:26:59;;;;;;;20.77;12.87;;;1.10;95.60;;;;;;5076378;28;20164;-90
2021/12/24 10:29:38;;;;;;;19.57;12.77;;;1.10;95.60;;;;;;5058235;28;20178;-89
2021/12/24 10:32:15;;;;;;;17.43;12.67;;;1.00;95.70;;;;;;5058195;28;20182;-90
2021/12/24 10:34:42;;;;;;;26.50;16.33;;;1.10;95.70;;;;;;5076146;28;20194;-88
2021/12/24 10:37:26;;;;;;;37.97;20.13;;;1.10;95.70;;;;;;5059696;28;20595;-90
2021/12/24 10:39:53;;;;;;;37.70;20.63;;;1.20;95.70;;;;;;5058366;28;20218;-90
2021/12/24 10:42:35;;;;;;;41.80;21.67;;;1.30;95.80;;;;;;5057863;28;20661;-90
2021/12/24 10:45:06;;;;;;;40.47;22.60;;;1.30;95.80;;;;;;5057650;28;20613;-90
2021/12/24 10:47:37;;;;;;;47.83;23.97;;;1.30;95.80;;;;;;5058345;28;20259;-92
2021/12/24 10:53:14;;;;;;;50.33;26.77;;;1.30;95.80;;;;;;5075922;28;20188;-91
2021/12/24 10:55:38;;;;;;;52.07;26.10;;;1.40;95.80;;;;;;5074071;28;20192;-89
2021/12/24 10:58:11;;;;;;;60.93;28.57;;;1.40;95.80;;;;;;5075413;28;20157;-89
2021/12/24 11:00:43;;;;;;;52.17;27.57;;;1.40;95.80;;;;;;5057531;28;20209;-90
2021/12/24 11:03:23;;;;;;;77.22;40.40;;;1.50;95.80;;;;;;5073913;28;20902;-90
2021/12/24 11:05:52;;;;;;;63.03;28.77;;;1.50;95.90;;;;;;5056090;28;20639;-92
2021/12/24 11:08:24;;;;;;;53.70;26.87;;;1.40;95.90;;;;;;5075032;28;20634;-90
2021/12/24 11:10:54;;;;;;;44.13;22.50;;;1.50;95.90;;;;;;5057151;28;20177;-90
2021/12/24 11:13:39;;;;;;;41.80;22.80;;;1.60;95.90;;;;;;5057404;28;20225;-89
2021/12/24 11:16:15;;;;;;;42.13;21.77;;;1.60;95.90;;;;;;5056819;28;20174;-89
2021/12/24 11:18:45;;;;;;;42.50;21.50;;;1.60;95.90;;;;;;5056828;28;20630;-88
2021/12/24 11:21:20;;;;;;;42.97;23.50;;;1.70;95.90;;;;;;5056754;28;20274;-89
2021/12/24 11:23:46;;;;;;;37.53;21.10;;;1.60;95.90;;;;;;5056810;28;20320;-88
2021/12/24 11:26:15;;;;;;;40.67;22.13;;;1.70;95.90;;;;;;5074786;28;20168;-88
2021/12/24 11:28:41;;;;;;;42.47;23.10;;;1.70;96.00;;;;;;5056628;28;20589;-87
2021/12/24 11:31:18;;;;;;;35.03;21.47;;;1.80;96.00;;;;;;5056570;28;20175;-91
2021/12/24 11:33:45;;;;;;;33.80;19.40;;;1.80;96.00;;;;;;5056543;28;20736;-89
2021/12/24 11:36:15;;;;;;;40.43;21.83;;;1.80;96.00;;;;;;5056542;28;20608;-90
2021/12/24 11:39:02;;;;;;;42.73;20.63;;;1.80;96.00;;;;;;5074525;28;20179;-87
2021/12/24 11:41:31;;;;;;;36.07;21.10;;;1.80;96.00;;;;;;5055859;28;20672;-88
2021/12/24 11:43:58;;;;;;;35.50;21.97;;;1.80;96.00;;;;;;5056346;28;20198;-89
2021/12/24 11:46:26;;;;;;;40.10;22.03;;;1.80;96.00;;;;;;5056518;28;20207;-88
2021/12/24 11:48:54;;;;;;;41.27;22.20;;;1.80;96.00;;;;;;5056371;28;20176;-89
2021/12/24 11:51:24;;;;;;;44.47;23.20;;;1.80;96.00;;;;;;5056352;28;20552;-89
2021/12/24 11:53:51;;;;;;;39.77;21.83;;;1.90;96.00;;;;;;5056081;28;20254;-89
2021/12/24 11:56:20;;;;;;;37.87;22.17;;;1.90;96.00;;;;;;5074034;28;20644;-90
2021/12/24 11:58:54;;;;;;;40.37;22.63;;;2.00;96.00;;;;;;5056119;28;20186;-87
2021/12/24 12:01:25;;;;;;;42.67;23.93;;;2.00;96.00;;;;;;5073930;28;20682;-90
2021/12/24 12:03:59;;;;;;;42.47;23.03;;;2.00;96.00;;;;;;5074028;28;20189;-90
2021/12/24 12:06:25;;;;;;;39.53;22.97;;;2.00;96.00;;;;;;5055921;28;20198;-90
2021/12/24 12:08:55;;;;;;;38.63;22.70;;;2.00;96.00;;;;;;5056703;28;20174;-91
2021/12/24 12:11:34;;;;;;;42.57;23.90;;;2.10;96.00;;;;;;5056107;28;20181;-90
2021/12/24 12:14:02;;;;;;;38.30;22.57;;;2.10;96.00;;;;;;5056381;28;20304;-89
2021/12/24 12:16:38;;;;;;;35.50;20.37;;;2.10;96.00;;;;;;5055338;28;20320;-89
2021/12/24 12:19:31;;;;;;;37.60;21.13;;;2.20;96.00;;;;;;5056643;28;20176;-89
2021/12/24 12:22:14;;;;;;;40.73;23.13;;;2.10;96.00;;;;;;5056434;28;20310;-89
2021/12/24 12:27:18;;;;;;;41.83;22.30;;;2.10;96.00;;;;;;5074029;28;20251;-89
2021/12/24 12:29:45;;;;;;;38.33;21.30;;;2.10;96.00;;;;;;5073676;28;20638;-88
2021/12/24 12:32:16;;;;;;;37.73;22.63;;;2.10;96.00;;;;;;5055822;28;20213;-90
2021/12/24 12:34:48;;;;;;;39.13;22.67;;;2.20;96.00;;;;;;5055663;28;20200;-88
2021/12/24 12:37:29;;;;;;;38.53;21.37;;;2.20;96.00;;;;;;5055695;28;20183;-88
2021/12/24 12:40:03;;;;;;;36.57;21.70;;;2.30;96.00;;;;;;5055555;28;20202;-90
2021/12/24 12:45:21;;;;;;;36.97;21.50;;;2.30;96.00;;;;;;5073644;28;20537;-89
2021/12/24 12:47:56;;;;;;;32.67;20.47;;;2.30;96.00;;;;;;5073573;28;20158;-89
2021/12/24 12:50:23;;;;;;;28.57;19.67;;;2.30;96.00;;;;;;5055760;28;20162;-90
2021/12/24 12:52:52;;;;;;;30.50;20.77;;;2.30;96.00;;;;;;5055306;28;20270;-89
2021/12/24 12:55:34;;;;;;;30.57;19.30;;;2.30;96.00;;;;;;5055347;28;20271;-89
2021/12/24 12:58:22;;;;;;;31.13;19.57;;;2.30;96.00;;;;;;5073901;28;20542;-89
2021/12/24 13:01:07;;;;;;;30.63;20.63;;;2.30;95.90;;;;;;5055322;28;20197;-89
2021/12/24 13:03:56;;;;;;;31.23;20.50;;;2.20;95.80;;;;;;5055894;28;20546;-89
2021/12/24 13:06:23;;;;;;;32.57;19.83;;;2.10;95.80;;;;;;5060010;28;20211;-92
2021/12/24 13:08:49;;;;;;;31.77;20.13;;;2.00;95.70;;;;;;5063863;28;20196;-92
2021/12/24 13:11:24;;;;;;;27.63;19.20;;;1.90;95.70;;;;;;5060813;28;20256;-91
2021/12/24 13:13:57;;;;;;;32.73;20.90;;;1.70;95.60;;;;;;5058954;28;20219;-90
2021/12/24 13:16:30;;;;;;;38.13;23.20;;;1.60;95.50;;;;;;5055415;28;20180;-89
2021/12/24 13:19:21;;;;;;;28.43;19.27;;;1.40;95.40;;;;;;5055693;28;20201;-87
2021/12/24 13:24:52;;;;;;;25.10;16.07;;;1.10;95.30;;;;;;5074895;28;20220;-91
2021/12/24 13:27:23;;;;;;;28.17;17.37;;;1.00;95.30;;;;;;5055643;28;20243;-92
2021/12/24 13:29:49;;;;;;;28.40;18.67;;;0.90;95.30;;;;;;5058063;28;20173;-90
2021/12/24 13:32:14;;;;;;;28.57;18.30;;;0.80;95.30;;;;;;5059368;28;20179;-90
2021/12/24 13:34:40;;;;;;;28.63;18.50;;;0.80;95.30;;;;;;5061613;28;20207;-91
2021/12/24 13:37:12;;;;;;;30.60;19.33;;;0.90;95.30;;;;;;5066425;28;20171;-93
2021/12/24 13:39:46;;;;;;;36.13;19.90;;;0.80;95.30;;;;;;5061214;28;20282;-89
2021/12/24 13:42:12;;;;;;;38.87;21.83;;;0.80;95.30;;;;;;5078610;28;20609;-90
2021/12/24 13:44:40;;;;;;;40.43;21.50;;;0.90;95.40;;;;;;5059636;28;20240;-91
2021/12/24 13:47:17;;;;;;;36.93;21.00;;;0.90;95.40;;;;;;5058983;28;20172;-91
2021/12/24 13:55:35;;;;;;;39.50;19.93;;;0.90;95.40;;;;;;5082374;28;20176;-92
2021/12/24 13:58:12;;;;;;;43.63;20.87;;;1.00;95.40;;;;;;5066537;28;20181;-91
2021/12/24 14:00:47;;;;;;;36.03;20.43;;;0.90;95.40;;;;;;5067215;28;20203;-92
2021/12/24 14:03:13;;;;;;;36.20;19.50;;;1.00;95.40;;;;;;5083555;28;20190;-91
2021/12/24 14:05:51;;;;;;;34.73;20.03;;;0.90;95.40;;;;;;5066543;28;20182;-93
2021/12/24 14:08:19;;;;;;;39.63;19.53;;;1.00;95.40;;;;;;5068060;28;20758;-93
2021/12/24 14:10:47;;;;;;;42.20;20.13;;;0.90;95.30;;;;;;5063701;28;20186;-93
2021/12/24 14:13:26;;;;;;;37.67;19.33;;;0.90;95.30;;;;;;5081508;28;20279;-92
2021/12/24 14:16:16;;;;;;;45.13;21.77;;;0.80;95.20;;;;;;5067299;28;20597;-91
2021/12/24 14:18:49;;;;;;;40.27;21.03;;;0.90;95.20;;;;;;5071376;28;20169;-92
2021/12/24 14:24:10;;;;;;;48.67;21.97;;;0.90;95.20;;;;;;5092138;28;20192;-92
2021/12/24 14:26:41;;;;;;;40.40;21.07;;;0.90;95.20;;;;;;5093951;28;20188;-92
2021/12/24 14:29:07;;;;;;;39.03;21.00;;;0.90;95.10;;;;;;5079632;28;20174;-92
2021/12/24 14:31:50;;;;;;;38.07;20.13;;;0.90;95.10;;;;;;5080509;28;20181;-90
2021/12/24 14:34:30;;;;;;;43.43;21.77;;;0.90;95.10;;;;;;5082356;28;20196;-92
2021/12/24 14:36:57;;;;;;;39.80;20.60;;;0.90;95.10;;;;;;5082037;28;20161;-93
2021/12/24 14:39:23;;;;;;;40.10;20.33;;;1.00;95.10;;;;;;5082620;28;20219;-92